Time;durP1;ratioP1;P1;durP2;ratioP2;P2;SDS_P1;SDS_P2;PMS_P1;PMS_P2;Temp;Humidity;BMP_temperature;BMP_pressure;BME280_temperature;BME280_humidity;BME280_pressure;Samples;Min_cycle;Max_cycle;Signal;HPM_P1;HPM_P2
2023/10/07 00:01:33;;;;;;;19.40;4.60;;;;;;;20.29;48.37;98967.52;135017;1283;22535;-64
2023/10/07 00:04:38;;;;;;;21.60;4.90;;;;;;;20.53;47.76;98965.37;135008;1282;22567;-64
2023/10/07 00:07:43;;;;;;;23.50;4.40;;;;;;;20.37;47.85;98965.48;135013;1283;22552;-65
2023/10/07 00:10:48;;;;;;;19.20;4.80;;;;;;;20.20;48.02;98957.77;135008;1283;22560;-66
2023/10/07 00:13:54;;;;;;;19.70;4.60;;;;;;;20.13;48.09;98956.90;135042;1283;22555;-64
2023/10/07 00:16:57;;;;;;;19.50;4.60;;;;;;;20.18;47.84;98949.80;135012;1283;22543;-66
2023/10/07 00:19:59;;;;;;;20.60;5.00;;;;;;;20.04;48.22;98948.30;134998;1282;22609;-64
2023/10/07 00:23:04;;;;;;;19.00;5.20;;;;;;;20.12;48.06;98941.73;135013;1282;22540;-64
2023/10/07 00:26:09;;;;;;;20.20;4.90;;;;;;;20.19;47.60;98933.05;135027;1282;22554;-66
2023/10/07 00:29:12;;;;;;;19.00;4.50;;;;;;;20.23;47.37;98917.33;135019;1283;22556;-65
2023/10/07 00:32:16;;;;;;;19.10;4.50;;;;;;;20.12;47.55;98915.43;135031;1283;22538;-65
2023/10/07 00:35:20;;;;;;;17.10;4.10;;;;;;;20.11;47.42;98916.77;135014;1283;22535;-65
2023/10/07 00:38:24;;;;;;;21.00;4.30;;;;;;;20.04;47.45;98921.52;135006;1282;22685;-66
2023/10/07 00:41:27;;;;;;;17.60;4.30;;;;;;;20.04;47.51;98915.65;134969;1283;22544;-65
2023/10/07 00:44:33;;;;;;;18.90;4.60;;;;;;;20.09;47.30;98905.84;135015;1282;22539;-65
2023/10/07 00:47:36;;;;;;;19.60;4.60;;;;;;;20.16;47.11;98908.27;134987;1283;22598;-65
2023/10/07 00:50:38;;;;;;;19.90;4.70;;;;;;;20.10;47.07;98913.27;135034;1282;22532;-64
2023/10/07 00:53:46;;;;;;;;;;;;;;;20.03;47.13;98912.78;135035;1282;22526;-65
2023/10/07 00:56:52;;;;;;;20.40;4.70;;;;;;;20.07;47.06;98907.27;134995;1282;22530;-66
2023/10/07 00:59:57;;;;;;;19.30;4.80;;;;;;;19.95;47.15;98910.34;134952;1283;25519;-64
2023/10/07 01:03:13;;;;;;;18.90;4.60;;;;;;;19.87;47.33;98907.23;134968;1283;22562;-63
2023/10/07 01:06:22;;;;;;;17.90;4.30;;;;;;;19.83;47.28;98903.40;134967;1283;22527;-66
2023/10/07 01:09:24;;;;;;;18.60;4.20;;;;;;;19.75;47.40;98896.69;134958;1282;22543;-65
2023/10/07 01:12:35;;;;;;;24.10;4.70;;;;;;;19.91;47.03;98899.08;134878;1283;22566;-64
2023/10/07 01:15:39;;;;;;;16.70;4.20;;;;;;;19.87;47.03;98899.25;134990;1282;22544;-65
2023/10/07 01:18:41;;;;;;;17.00;3.80;;;;;;;19.87;47.15;98894.60;134988;1283;22532;-65
2023/10/07 01:21:50;;;;;;;;;;;;;;;19.85;47.06;98883.16;134986;1283;22511;-63
2023/10/07 01:24:56;;;;;;;22.70;5.70;;;;;;;19.89;46.78;98872.79;134964;1283;22547;-65
2023/10/07 01:28:01;;;;;;;18.00;4.40;;;;;;;19.97;46.56;98861.58;134965;1282;22540;-66
2023/10/07 01:31:09;;;;;;;20.60;4.50;;;;;;;19.91;46.48;98850.98;135008;1283;22547;-65
2023/10/07 01:34:14;;;;;;;18.90;4.10;;;;;;;19.85;46.64;98850.89;134995;1282;22530;-64
2023/10/07 01:37:21;;;;;;;17.60;4.40;;;;;;;19.73;46.95;98851.44;135017;1283;22549;-65
2023/10/07 01:40:27;;;;;;;18.10;4.30;;;;;;;19.74;46.92;98841.45;134986;1283;22528;-65
2023/10/07 01:43:30;;;;;;;19.10;4.30;;;;;;;19.74;46.82;98834.64;135007;1283;22537;-64
2023/10/07 01:46:32;;;;;;;19.30;4.60;;;;;;;19.74;46.77;98829.94;135008;1282;22540;-65
2023/10/07 01:49:35;;;;;;;;;;;;;;;19.76;46.72;98822.75;135016;1282;22530;-65
2023/10/07 01:52:38;;;;;;;15.90;3.80;;;;;;;19.78;46.61;98823.33;134998;1283;22546;-66
2023/10/07 01:55:42;;;;;;;19.10;4.80;;;;;;;19.75;46.56;98821.97;134986;1283;22903;-63
2023/10/07 01:58:45;;;;;;;19.10;5.00;;;;;;;19.74;46.64;98822.64;134964;1283;22520;-65
2023/10/07 02:01:58;;;;;;;19.40;4.30;;;;;;;19.69;46.80;98819.75;135000;1283;22547;-66
2023/10/07 02:05:10;;;;;;;22.60;4.50;;;;;;;19.66;46.80;98813.27;134979;1283;22558;-65
2023/10/07 02:08:14;;;;;;;19.80;4.60;;;;;;;19.67;46.73;98810.94;134993;1283;22542;-66
2023/10/07 02:11:18;;;;;;;17.40;4.40;;;;;;;19.77;46.43;98796.86;135005;1283;25252;-66
2023/10/07 02:14:24;;;;;;;18.70;4.10;;;;;;;19.69;46.58;98795.11;134925;1283;22537;-64
2023/10/07 02:17:28;;;;;;;17.90;4.10;;;;;;;19.52;47.01;98792.86;134986;1283;22544;-66
2023/10/07 02:20:38;;;;;;;18.60;4.00;;;;;;;19.45;46.96;98786.27;134985;1283;22541;-64
2023/10/07 02:23:41;;;;;;;19.80;4.70;;;;;;;19.52;46.99;98783.67;135001;1282;22516;-64
2023/10/07 02:26:44;;;;;;;16.60;4.20;;;;;;;19.67;46.46;98766.39;134991;1283;22543;-65
2023/10/07 02:29:48;;;;;;;17.00;3.90;;;;;;;19.67;46.37;98770.66;134996;1283;22544;-65
2023/10/07 02:32:50;;;;;;;18.00;4.50;;;;;;;19.58;46.45;98776.32;134985;1282;24236;-66
2023/10/07 02:35:55;;;;;;;;;;;;;;;19.52;46.65;98779.36;134984;1283;22526;-65
2023/10/07 02:39:01;;;;;;;21.20;4.30;;;;;;;19.58;46.30;98780.24;134976;1283;22541;-66
2023/10/07 02:42:03;;;;;;;16.90;4.10;;;;;;;19.68;46.02;98781.72;134966;1283;22537;-66
2023/10/07 02:45:20;;;;;;;;;;;;;;;19.88;45.41;98789.81;134996;1283;22539;-64
2023/10/07 02:48:22;;;;;;;18.10;4.30;;;;;;;20.04;45.44;98783.31;134995;1283;25090;-66
2023/10/07 02:51:27;;;;;;;;;;;;;;;20.14;45.24;98774.16;134999;1268;25474;-66
2023/10/07 02:54:33;;;;;;;15.90;4.00;;;;;;;20.06;45.40;98757.90;134983;1282;22540;-66
2023/10/07 02:57:40;;;;;;;21.30;4.30;;;;;;;19.95;45.51;98756.87;135008;1283;25419;-65
2023/10/07 03:00:49;;;;;;;17.20;4.30;;;;;;;19.88;45.63;98755.81;134976;1283;22533;-66
2023/10/07 03:03:51;;;;;;;17.70;4.30;;;;;;;19.88;45.65;98754.35;134989;1283;22542;-64
2023/10/07 03:06:54;;;;;;;17.80;4.30;;;;;;;19.95;45.54;98745.14;134980;1267;24239;-65
2023/10/07 03:10:04;;;;;;;;;;;;;;;20.13;45.15;98734.19;134943;1264;22515;-66
2023/10/07 03:13:07;;;;;;;18.40;4.40;;;;;;;20.09;45.17;98735.20;134879;1282;22567;-63
2023/10/07 03:19:46;;;;;;;16.50;4.00;;;;;;;20.14;45.08;98726.90;135002;1283;22594;-64
2023/10/07 03:26:09;;;;;;;17.40;3.90;;;;;;;20.24;44.80;98717.70;134996;1282;25359;-66
2023/10/07 03:29:24;;;;;;;18.10;4.10;;;;;;;20.39;44.57;98717.91;134897;1283;22539;-63
2023/10/07 03:32:32;;;;;;;17.60;4.40;;;;;;;20.28;44.47;98720.13;135006;1282;22549;-66
2023/10/07 03:35:51;;;;;;;17.90;4.20;;;;;;;20.35;44.30;98727.45;134990;1283;22547;-66
2023/10/07 03:38:57;;;;;;;18.20;4.20;;;;;;;20.35;44.22;98720.86;134991;1267;22540;-64
2023/10/07 03:42:02;;;;;;;18.30;3.80;;;;;;;20.44;44.16;98717.08;134990;1283;22542;-64
2023/10/07 03:45:04;;;;;;;18.20;3.80;;;;;;;20.37;44.15;98716.91;134923;1282;22561;-64
2023/10/07 03:48:22;;;;;;;;;;;;;;;20.36;44.29;98714.52;134984;1283;22518;-64
2023/10/07 03:51:30;;;;;;;18.20;3.90;;;;;;;20.44;44.05;98719.95;134931;1283;22533;-65
2023/10/07 03:54:33;;;;;;;18.00;4.90;;;;;;;20.50;43.94;98706.52;134981;1282;22556;-64
2023/10/07 03:57:38;;;;;;;;;;;;;;;20.49;43.85;98708.54;135007;1283;22522;-64
2023/10/07 04:00:41;;;;;;;16.00;3.80;;;;;;;20.49;43.86;98708.01;135023;1283;22540;-65
2023/10/07 04:03:46;;;;;;;16.40;3.70;;;;;;;20.52;43.74;98710.42;134978;1283;22551;-64
2023/10/07 04:06:49;;;;;;;18.30;3.80;;;;;;;20.59;43.92;98707.58;134989;1282;25263;-64
2023/10/07 04:09:51;;;;;;;;;;;;;;;20.59;43.68;98700.39;134962;1282;22511;-64
2023/10/07 04:12:56;;;;;;;17.00;3.80;;;;;;;20.64;43.75;98691.79;134985;1282;22533;-64
2023/10/07 04:15:59;;;;;;;17.00;4.10;;;;;;;20.61;43.38;98696.27;134963;1282;22550;-64
2023/10/07 04:19:09;;;;;;;16.40;3.80;;;;;;;20.63;43.34;98711.27;134944;1283;22554;-65
2023/10/07 04:22:12;;;;;;;16.40;3.60;;;;;;;20.73;43.40;98698.80;134976;1282;22540;-64
2023/10/07 04:25:17;;;;;;;18.30;4.00;;;;;;;20.76;43.26;98698.52;135010;1282;22584;-64
2023/10/07 04:28:20;;;;;;;17.10;3.90;;;;;;;20.72;43.23;98698.00;134981;1282;22550;-62
2023/10/07 04:31:29;;;;;;;18.40;4.00;;;;;;;20.69;43.29;98693.89;135011;1283;22559;-64
2023/10/07 04:34:35;;;;;;;16.80;3.60;;;;;;;20.71;43.28;98690.88;134984;1283;22544;-64
2023/10/07 04:37:51;;;;;;;16.10;3.90;;;;;;;20.74;43.04;98695.31;134971;1282;22549;-63
2023/10/07 04:45:00;;;;;;;18.00;4.90;;;;;;;20.84;42.50;98699.27;134981;1283;22519;-62
2023/10/07 04:47:47;;;;;;;18.80;4.00;;;;;;;20.82;42.53;98689.20;134941;1282;22554;-63
2023/10/07 04:51:03;;;;;;;16.60;3.90;;;;;;;20.75;42.69;98693.15;135027;1283;22545;-64
2023/10/07 04:54:05;;;;;;;16.70;3.90;;;;;;;20.85;42.51;98691.04;134991;1283;22529;-64
2023/10/07 04:57:17;;;;;;;;;;;;;;;20.83;42.66;98698.49;134993;1281;25313;-65
2023/10/07 05:00:34;;;;;;;19.50;4.20;;;;;;;20.78;42.99;98704.52;134970;1283;22547;-64
2023/10/07 05:03:37;;;;;;;17.90;4.50;;;;;;;20.83;42.92;98709.16;134976;1283;25298;-65
2023/10/07 05:06:42;;;;;;;16.60;3.90;;;;;;;20.95;42.70;98701.67;134996;1283;22523;-64
2023/10/07 05:09:47;;;;;;;19.60;4.30;;;;;;;20.91;42.86;98706.89;135002;1282;22554;-65
2023/10/07 05:12:55;;;;;;;18.60;4.70;;;;;;;21.04;42.75;98698.95;135002;1283;22536;-64
2023/10/07 05:15:57;;;;;;;19.50;4.50;;;;;;;20.91;42.73;98702.82;134997;1283;22538;-64
2023/10/07 05:19:00;;;;;;;;;;;;;;;20.85;43.21;98690.80;135026;1283;22762;-64
2023/10/07 05:22:14;;;;;;;17.50;4.30;;;;;;;20.99;43.01;98690.42;135026;1282;22560;-64
2023/10/07 05:25:16;;;;;;;19.40;4.40;;;;;;;20.97;43.05;98682.84;134914;1282;22551;-64
2023/10/07 05:28:20;;;;;;;;;;;;;;;20.99;43.34;98685.60;135026;1263;24400;-64
2023/10/07 05:31:23;;;;;;;19.40;4.50;;;;;;;20.99;43.43;98672.97;134952;1282;22540;-64
2023/10/07 05:34:28;;;;;;;21.30;5.90;;;;;;;20.97;43.40;98678.88;135007;1283;22547;-64
2023/10/07 05:37:30;;;;;;;19.40;4.80;;;;;;;21.02;43.06;98694.38;134981;1283;25255;-64
2023/10/07 05:40:33;;;;;;;;;;;;;;;21.01;43.55;98691.27;135031;1283;22520;-62
2023/10/07 05:43:36;;;;;;;17.50;4.10;;;;;;;21.12;43.35;98700.80;134967;1283;22654;-65
2023/10/07 05:46:38;;;;;;;19.80;4.60;;;;;;;21.12;43.30;98705.60;135007;1283;22532;-64
2023/10/07 05:49:41;;;;;;;;;;;;;;;21.21;43.46;98692.14;134962;1282;22562;-64
2023/10/07 05:52:44;;;;;;;19.30;4.60;;;;;;;21.21;43.55;98688.20;135020;1282;22532;-63
2023/10/07 05:55:46;;;;;;;18.30;4.70;;;;;;;21.25;43.49;98697.48;135000;1283;22529;-64
2023/10/07 05:58:49;;;;;;;20.20;4.60;;;;;;;21.21;43.54;98693.47;135001;1283;22553;-64
2023/10/07 06:01:52;;;;;;;19.10;4.60;;;;;;;21.22;43.65;98700.00;134970;1283;22634;-65
2023/10/07 06:04:55;;;;;;;19.10;4.70;;;;;;;21.24;43.61;98706.20;134972;1283;25238;-65
2023/10/07 06:07:58;;;;;;;;;;;;;;;21.41;43.54;98706.85;134982;1282;22547;-65
2023/10/07 06:11:00;;;;;;;;;;;;;;;21.53;43.52;98709.89;134995;1282;22520;-62
2023/10/07 06:14:04;;;;;;;17.70;4.20;;;;;;;21.59;43.46;98709.79;134997;1283;22533;-62
2023/10/07 06:17:07;;;;;;;17.20;4.10;;;;;;;21.64;43.37;98709.61;134999;1283;22555;-64
2023/10/07 06:20:14;;;;;;;;;;;;;;;21.63;43.81;98699.05;135010;1282;22514;-64
2023/10/07 06:23:18;;;;;;;20.10;4.60;;;;;;;21.76;43.57;98693.02;135025;1283;25189;-64
2023/10/07 06:26:20;;;;;;;19.90;5.20;;;;;;;21.84;43.48;98693.55;134998;1283;22537;-65
2023/10/07 06:29:25;;;;;;;;;;;;;;;21.97;43.47;98684.85;135040;1282;22576;-65
2023/10/07 06:32:43;;;;;;;20.30;4.60;;;;;;;22.00;43.67;98679.88;135016;1283;25430;-62
2023/10/07 06:35:46;;;;;;;17.70;4.20;;;;;;;22.08;43.90;98687.67;135012;1283;22548;-64
2023/10/07 06:38:51;;;;;;;;;;;;;;;22.16;43.33;98692.52;134975;1283;22523;-64
2023/10/07 06:41:55;;;;;;;20.10;4.90;;;;;;;22.16;43.59;98685.60;135020;1282;25341;-63
2023/10/07 06:45:06;;;;;;;18.80;4.30;;;;;;;22.20;43.36;98678.02;134987;1282;22572;-62
2023/10/07 06:48:09;;;;;;;18.50;4.50;;;;;;;22.17;43.42;98682.93;135002;1283;22534;-64
2023/10/07 06:51:11;;;;;;;17.80;4.00;;;;;;;22.21;43.60;98690.41;134917;1282;87844;-64
2023/10/07 06:54:14;;;;;;;19.80;4.30;;;;;;;22.13;43.63;98692.73;135001;1279;22537;-63
2023/10/07 06:57:17;;;;;;;;;;;;;;;22.01;43.80;98686.92;135024;1282;22647;-63
2023/10/07 07:00:25;;;;;;;18.90;4.30;;;;;;;22.06;43.64;98700.77;134984;1283;22533;-64
2023/10/07 07:03:27;;;;;;;18.00;4.30;;;;;;;22.03;43.78;98699.80;135019;1280;22610;-65
2023/10/07 07:06:34;;;;;;;;;;;;;;;22.05;44.15;98678.77;135011;1282;25154;-62
2023/10/07 07:09:43;;;;;;;21.30;4.70;;;;;;;22.12;43.86;98688.45;135008;1283;22573;-63
2023/10/07 07:12:46;;;;;;;18.20;4.20;;;;;;;22.14;43.92;98698.57;135017;1283;22553;-65
2023/10/07 07:15:48;;;;;;;18.20;4.60;;;;;;;22.22;44.09;98703.95;135006;1282;22533;-64
2023/10/07 07:18:50;;;;;;;;;;;;;;;22.20;44.07;98714.67;135034;1283;22512;-64
2023/10/07 07:21:57;;;;;;;17.30;4.10;;;;;;;22.13;44.31;98713.52;135034;1282;22519;-64
2023/10/07 07:25:04;;;;;;;16.30;4.10;;;;;;;22.09;44.54;98727.09;135050;1282;22559;-65
2023/10/07 07:28:06;;;;;;;19.10;4.20;;;;;;;22.19;44.32;98723.48;135032;1283;22566;-61
2023/10/07 07:31:11;;;;;;;19.30;4.20;;;;;;;22.34;44.13;98725.98;135018;1282;22545;-64
2023/10/07 07:34:23;;;;;;;18.40;4.50;;;;;;;22.41;44.04;98729.27;135026;1282;22537;-63
2023/10/07 07:37:25;;;;;;;18.40;4.80;;;;;;;22.43;44.12;98727.96;135013;1283;22553;-63
2023/10/07 07:40:38;;;;;;;17.20;4.30;;;;;;;22.70;43.81;98718.44;135052;1282;22661;-63
2023/10/07 07:43:40;;;;;;;;;;;;;;;22.81;44.06;98725.66;135039;1282;25420;-64
2023/10/07 07:46:52;;;;;;;20.20;4.50;;;;;;;23.15;43.31;98722.73;135030;1282;22544;-64
2023/10/07 07:49:54;;;;;;;17.80;4.20;;;;;;;23.18;43.61;98699.55;135004;1282;23092;-64
2023/10/07 08:00:20;;;;;;;21.30;5.40;;;;;;;23.65;42.91;98689.23;135009;1282;22572;-64
2023/10/07 08:03:40;;;;;;;20.00;5.00;;;;;;;23.83;42.89;98699.73;134987;1282;22561;-63
2023/10/07 08:06:42;;;;;;;23.60;5.10;;;;;;;23.65;43.05;98716.45;134990;1283;22696;-63
2023/10/07 08:09:46;;;;;;;18.70;4.80;;;;;;;23.57;43.38;98711.73;135048;1282;22535;-65
2023/10/07 08:12:50;;;;;;;17.50;4.20;;;;;;;23.61;43.41;98699.79;135064;1271;22563;-64
2023/10/07 08:15:53;;;;;;;17.30;4.80;;;;;;;23.53;43.44;98690.09;135067;1262;22559;-65
2023/10/07 08:18:56;;;;;;;16.80;4.50;;;;;;;23.57;43.90;98693.80;135050;1282;22544;-65
2023/10/07 08:22:02;;;;;;;17.40;4.30;;;;;;;23.89;43.74;98692.25;134976;1283;22536;-62
2023/10/07 08:25:07;;;;;;;16.90;3.90;;;;;;;23.94;43.69;98696.98;135045;1283;22540;-63
2023/10/07 08:28:19;;;;;;;17.70;4.30;;;;;;;24.07;44.20;98712.23;135016;1282;22636;-63
2023/10/07 08:31:27;;;;;;;16.30;3.80;;;;;;;24.40;43.90;98704.41;135035;1282;22539;-63
2023/10/07 08:34:34;;;;;;;16.30;4.70;;;;;;;24.33;43.56;98704.64;135023;1283;24260;-63
2023/10/07 08:37:37;;;;;;;17.70;4.10;;;;;;;24.11;43.75;98713.77;135015;1283;22540;-63
2023/10/07 08:40:49;;;;;;;18.10;4.20;;;;;;;23.98;44.27;98700.27;135010;1264;22623;-63
2023/10/07 08:44:03;;;;;;;16.30;4.10;;;;;;;23.97;44.40;98684.17;135035;1264;22553;-62
2023/10/07 08:47:10;;;;;;;18.60;4.20;;;;;;;23.98;44.72;98693.14;135038;1283;22634;-62
2023/10/07 08:50:14;;;;;;;19.80;4.70;;;;;;;24.12;44.58;98685.55;135004;1282;22550;-59
2023/10/07 08:53:17;;;;;;;18.90;4.10;;;;;;;24.59;44.33;98680.52;135003;1282;22660;-65
2023/10/07 08:56:20;;;;;;;19.70;4.60;;;;;;;25.16;43.44;98667.96;135047;1282;22541;-58
2023/10/07 08:59:24;;;;;;;18.40;4.20;;;;;;;25.53;42.78;98660.52;135033;1282;24840;-60
2023/10/07 09:02:27;;;;;;;18.50;4.10;;;;;;;25.45;42.56;98662.63;135014;1282;22536;-64
2023/10/07 09:05:30;;;;;;;19.90;4.20;;;;;;;25.38;42.51;98674.02;135019;1282;23244;-59
2023/10/07 09:08:33;;;;;;;20.40;4.10;;;;;;;25.08;42.59;98683.03;135034;1283;25248;-63
2023/10/07 09:11:37;;;;;;;16.90;3.90;;;;;;;24.92;43.04;98688.52;135070;1264;24376;-63
2023/10/07 09:14:45;;;;;;;18.10;4.30;;;;;;;24.96;43.35;98685.05;135017;1282;22542;-63
2023/10/07 09:17:47;;;;;;;16.80;4.10;;;;;;;25.09;43.15;98662.41;135027;1283;22656;-62
2023/10/07 09:20:51;;;;;;;17.50;4.00;;;;;;;25.39;42.77;98664.73;135033;1283;22537;-65
2023/10/07 09:24:03;;;;;;;15.20;4.00;;;;;;;25.60;42.43;98677.39;134976;1264;22536;-66
2023/10/07 09:27:10;;;;;;;17.50;4.10;;;;;;;25.70;42.61;98672.92;135064;1282;22530;-65
2023/10/07 09:30:35;;;;;;;18.50;4.60;;;;;;;25.78;42.31;98668.05;135043;1282;22552;-64
2023/10/07 09:33:37;;;;;;;19.50;4.20;;;;;;;26.00;42.29;98673.52;135029;1264;22551;-64
2023/10/07 09:36:41;;;;;;;15.30;3.80;;;;;;;26.01;41.68;98676.33;135038;1283;22551;-65
2023/10/07 09:39:53;;;;;;;14.80;3.90;;;;;;;26.02;41.90;98679.58;135019;1282;22536;-64
2023/10/07 09:42:58;;;;;;;19.90;4.40;;;;;;;26.06;41.19;98690.47;135011;1282;24265;-64
2023/10/07 09:46:02;;;;;;;20.20;4.20;;;;;;;25.73;41.75;98685.34;135027;1282;23339;-64
2023/10/07 09:49:06;;;;;;;17.80;4.30;;;;;;;25.66;42.32;98679.87;135010;1283;24255;-64
2023/10/07 09:52:16;;;;;;;17.00;4.00;;;;;;;25.42;42.60;98681.61;135055;1282;22545;-65
2023/10/07 09:55:22;;;;;;;17.00;4.10;;;;;;;25.32;42.81;98667.80;135032;1263;22544;-64
2023/10/07 09:58:34;;;;;;;15.80;3.80;;;;;;;25.16;43.43;98679.58;135045;1283;24264;-64
2023/10/07 10:01:37;;;;;;;17.80;3.80;;;;;;;24.99;43.53;98680.80;134990;1282;22695;-65
2023/10/07 10:04:40;;;;;;;16.30;3.90;;;;;;;25.09;44.12;98679.41;135042;1282;22532;-65
2023/10/07 10:07:44;;;;;;;20.40;4.40;;;;;;;24.94;44.30;98664.94;135038;1264;24234;-64
2023/10/07 10:10:46;;;;;;;18.50;4.10;;;;;;;24.90;44.38;98664.93;135052;1283;23460;-64
2023/10/07 10:14:16;;;;;;;17.70;3.80;;;;;;;24.83;44.69;98665.19;135024;1283;22579;-65
2023/10/07 10:17:22;;;;;;;16.80;3.70;;;;;;;24.74;44.97;98664.35;135022;1283;24285;-65
2023/10/07 10:20:27;;;;;;;15.30;3.60;;;;;;;24.67;45.12;98666.77;135034;1262;24268;-65
2023/10/07 10:23:32;;;;;;;14.20;3.60;;;;;;;24.49;45.68;98667.89;135105;1283;24289;-65
2023/10/07 10:26:35;;;;;;;15.50;3.60;;;;;;;24.67;45.50;98653.41;135070;1283;22526;-64
2023/10/07 10:29:41;;;;;;;17.20;3.80;;;;;;;24.70;45.54;98644.99;135039;1282;22530;-64
2023/10/07 10:32:44;;;;;;;17.10;4.00;;;;;;;24.76;45.32;98643.36;135047;1283;22520;-64
2023/10/07 10:35:47;;;;;;;14.60;3.70;;;;;;;24.82;45.29;98638.20;135051;1260;22643;-62
2023/10/07 10:38:49;;;;;;;14.10;3.60;;;;;;;25.00;44.96;98639.90;135089;1283;22645;-65
2023/10/07 10:41:52;;;;;;;15.60;3.60;;;;;;;24.92;45.42;98646.18;135058;1282;22542;-64
2023/10/07 10:44:56;;;;;;;18.50;4.50;;;;;;;24.99;45.22;98647.36;135080;1283;22545;-65
2023/10/07 10:47:59;;;;;;;22.70;6.90;;;;;;;24.99;45.28;98635.11;135012;1283;22559;-64
2023/10/07 10:51:05;;;;;;;16.40;4.00;;;;;;;25.20;45.16;98628.48;135077;1282;22531;-65
2023/10/07 10:54:09;;;;;;;17.00;3.80;;;;;;;25.23;45.04;98635.92;135013;1283;22556;-64
2023/10/07 10:57:14;;;;;;;20.30;4.20;;;;;;;25.30;44.88;98633.48;135013;1283;26095;-63
2023/10/07 11:00:21;;;;;;;15.00;3.90;;;;;;;25.24;45.19;98632.98;135016;1283;22686;-65
2023/10/07 11:03:24;;;;;;;17.80;3.90;;;;;;;25.20;45.38;98631.34;135019;1264;24272;-64
2023/10/07 11:06:28;;;;;;;15.40;3.40;;;;;;;25.30;45.54;98631.36;135037;1283;22565;-62
2023/10/07 11:09:37;;;;;;;19.10;4.10;;;;;;;25.07;46.11;98641.71;135013;1264;22545;-61
2023/10/07 11:12:40;;;;;;;12.20;3.10;;;;;;;25.11;46.01;98631.35;135005;1283;23836;-64
2023/10/07 11:15:46;;;;;;;13.70;3.30;;;;;;;25.04;46.27;98632.52;135041;1283;22562;-65
2023/10/07 11:18:49;;;;;;;13.70;3.20;;;;;;;25.01;46.41;98623.73;135019;1283;22558;-64
2023/10/07 11:21:54;;;;;;;17.20;3.40;;;;;;;24.92;46.27;98614.40;135056;1283;23166;-65
2023/10/07 11:24:56;;;;;;;12.40;3.20;;;;;;;24.93;46.48;98621.93;135092;1282;22536;-63
2023/10/07 11:27:59;;;;;;;13.80;3.40;;;;;;;24.98;46.62;98617.43;135031;1283;23565;-65
2023/10/07 11:31:02;;;;;;;15.80;3.50;;;;;;;24.88;46.74;98625.13;135035;1283;22803;-65
2023/10/07 11:34:05;;;;;;;13.90;3.20;;;;;;;24.87;46.86;98620.02;135058;1283;24243;-64
2023/10/07 11:37:09;;;;;;;13.60;3.00;;;;;;;24.90;46.88;98614.67;135057;1283;25611;-64
2023/10/07 11:40:12;;;;;;;11.90;2.90;;;;;;;24.83;46.83;98613.50;135054;1283;22561;-65
2023/10/07 11:43:14;;;;;;;12.10;3.40;;;;;;;24.86;47.00;98613.98;135111;1283;22542;-65
2023/10/07 11:46:19;;;;;;;16.50;3.50;;;;;;;24.73;47.05;98623.13;135052;1283;22565;-65
2023/10/07 11:49:22;;;;;;;14.00;3.40;;;;;;;24.79;47.36;98623.69;135044;1283;24338;-63
2023/10/07 11:52:27;;;;;;;14.70;3.40;;;;;;;24.62;48.37;98629.63;135036;1283;22536;-65
2023/10/07 11:55:31;;;;;;;12.90;3.10;;;;;;;24.51;48.96;98632.83;135011;1283;24225;-64
2023/10/07 11:58:34;;;;;;;13.60;3.40;;;;;;;24.33;49.97;98641.77;135032;1283;22530;-65
2023/10/07 12:01:38;;;;;;;17.20;4.20;;;;;;;24.03;51.16;98636.96;135041;1283;22541;-65
2023/10/07 12:04:41;;;;;;;13.20;3.30;;;;;;;23.98;51.49;98630.50;135026;1283;22530;-65
2023/10/07 12:07:47;;;;;;;12.30;3.30;;;;;;;23.84;51.94;98634.40;135040;1283;22548;-65
2023/10/07 12:10:51;;;;;;;16.30;3.50;;;;;;;23.68;52.50;98633.25;135075;1283;22559;-65
2023/10/07 12:13:54;;;;;;;18.60;3.90;;;;;;;23.72;52.51;98636.17;135080;1282;22556;-65
2023/10/07 12:17:01;;;;;;;16.30;3.90;;;;;;;23.70;52.56;98633.03;135019;1282;22571;-65
2023/10/07 12:20:04;;;;;;;17.40;3.50;;;;;;;23.70;52.94;98632.90;134920;1282;22523;-63
2023/10/07 12:23:07;;;;;;;20.60;3.90;;;;;;;23.74;52.69;98624.12;135071;1269;22524;-64
2023/10/07 12:26:11;;;;;;;15.00;3.60;;;;;;;23.83;53.17;98626.31;135060;1283;22555;-64
2023/10/07 12:29:13;;;;;;;16.10;4.30;;;;;;;23.89;53.46;98620.27;134971;1282;22539;-64
2023/10/07 12:32:16;;;;;;;18.90;4.30;;;;;;;23.72;54.23;98622.48;135087;1282;22558;-62
2023/10/07 12:35:18;;;;;;;17.90;4.00;;;;;;;23.55;54.90;98630.00;135032;1283;22548;-64
2023/10/07 12:38:21;;;;;;;15.80;4.00;;;;;;;23.39;56.06;98637.90;134998;1282;24227;-65
2023/10/07 12:41:23;;;;;;;18.00;4.40;;;;;;;23.06;57.20;98645.50;135064;1283;22540;-65
2023/10/07 12:44:26;;;;;;;17.40;4.70;;;;;;;22.90;57.87;98650.31;135091;1282;22547;-59
2023/10/07 12:47:30;;;;;;;18.00;4.70;;;;;;;22.89;58.47;98653.66;135006;1282;23306;-65
2023/10/07 12:50:33;;;;;;;16.40;4.20;;;;;;;22.93;58.31;98641.65;135058;1282;22547;-65
2023/10/07 12:53:36;;;;;;;21.00;4.90;;;;;;;22.89;58.40;98635.13;134904;1264;22534;-65
2023/10/07 12:56:38;;;;;;;18.30;4.30;;;;;;;23.02;57.72;98631.92;136469;1265;22287;-65
2023/10/07 12:59:42;;;;;;;22.20;5.00;;;;;;;23.11;57.44;98627.59;136536;1268;22272;-64
2023/10/07 13:02:45;;;;;;;18.60;4.50;;;;;;;23.17;57.00;98627.49;136521;1282;22228;-66
2023/10/07 13:05:47;;;;;;;17.70;4.70;;;;;;;23.11;57.37;98627.48;136495;1283;22260;-64
2023/10/07 13:08:50;;;;;;;19.90;5.10;;;;;;;23.11;57.00;98623.91;135569;1282;22545;-65
2023/10/07 13:11:52;;;;;;;19.90;5.80;;;;;;;23.10;57.15;98623.48;135104;1282;22566;-66
2023/10/07 13:14:55;;;;;;;20.90;5.20;;;;;;;23.07;57.11;98619.54;135080;1282;22565;-64
2023/10/07 13:17:58;;;;;;;20.40;5.40;;;;;;;23.03;57.23;98607.38;135094;1283;22550;-65
2023/10/07 13:21:07;;;;;;;20.60;5.40;;;;;;;22.96;57.23;98605.95;135095;1282;22533;-65
2023/10/07 13:24:11;;;;;;;17.30;5.00;;;;;;;22.89;57.31;98601.77;135098;1264;22537;-64
2023/10/07 13:27:14;;;;;;;21.40;5.40;;;;;;;23.07;56.85;98600.92;135103;1282;22555;-65
2023/10/07 13:30:17;;;;;;;22.70;7.10;;;;;;;23.13;56.46;98607.23;135121;1283;22573;-64
2023/10/07 13:33:22;;;;;;;30.70;10.90;;;;;;;23.15;56.28;98606.46;135076;1283;25508;-63
2023/10/07 13:36:25;;;;;;;17.70;5.50;;;;;;;23.17;56.37;98602.11;135077;1282;22718;-65
2023/10/07 13:39:31;;;;;;;19.00;5.20;;;;;;;23.22;56.57;98600.17;135092;1282;22554;-62
2023/10/07 13:42:33;;;;;;;20.90;5.80;;;;;;;23.29;56.24;98599.36;135077;1282;22578;-66
2023/10/07 13:45:36;;;;;;;21.70;6.10;;;;;;;23.41;55.68;98600.98;135060;1267;22530;-65
2023/10/07 13:48:38;;;;;;;18.50;5.60;;;;;;;23.53;55.47;98598.48;135106;1277;22566;-65
2023/10/07 13:51:43;;;;;;;18.80;5.30;;;;;;;23.61;55.20;98589.89;135070;1282;22766;-65
2023/10/07 13:55:12;;;;;;;20.70;5.60;;;;;;;23.62;54.86;98588.64;135063;1283;24291;-65
2023/10/07 13:58:11;;;;;;;19.70;5.20;;;;;;;23.61;54.92;98588.42;135061;1282;22546;-65
2023/10/07 14:01:15;;;;;;;23.10;5.90;;;;;;;23.57;54.84;98582.61;135071;1283;22782;-65
2023/10/07 14:04:19;;;;;;;20.90;5.20;;;;;;;23.53;54.47;98586.49;135068;1283;22563;-65
2023/10/07 14:07:21;;;;;;;20.30;5.50;;;;;;;23.42;54.71;98586.16;135071;1283;24066;-65
2023/10/07 14:10:25;;;;;;;18.30;5.70;;;;;;;23.37;54.86;98586.48;135058;1283;22658;-65
2023/10/07 14:13:31;;;;;;;18.00;4.40;;;;;;;23.43;54.78;98585.18;135098;1283;22536;-65
2023/10/07 14:16:34;;;;;;;18.40;4.90;;;;;;;23.57;54.24;98588.00;135089;1283;22562;-65
2023/10/07 14:19:38;;;;;;;14.70;3.90;;;;;;;23.54;54.55;98592.15;135070;1283;22594;-65
2023/10/07 14:22:41;;;;;;;15.10;3.60;;;;;;;23.68;54.16;98588.61;135063;1282;22537;-65
2023/10/07 14:25:44;;;;;;;14.50;3.60;;;;;;;23.76;53.96;98591.52;135068;1283;22541;-65
2023/10/07 14:28:49;;;;;;;15.50;3.80;;;;;;;23.93;53.54;98587.54;135065;1282;22537;-65
2023/10/07 14:31:52;;;;;;;14.10;3.60;;;;;;;23.81;53.66;98586.54;135080;1283;22530;-65
2023/10/07 14:34:55;;;;;;;14.10;3.50;;;;;;;23.82;53.76;98589.14;135089;1283;22554;-65
2023/10/07 14:37:57;;;;;;;18.20;3.90;;;;;;;23.79;53.92;98583.65;135085;1282;22570;-66